Time;durP1;ratioP1;P1;durP2;ratioP2;P2;SDS_P1;SDS_P2;PMS_P1;PMS_P2;Temp;Humidity;BMP_temperature;BMP_pressure;BME280_temperature;BME280_humidity;BME280_pressure;Samples;Min_cycle;Max_cycle;Signal;HPM_P1;HPM_P2
2022/06/27 00:02:23;;;;;;;16.13;11.85;;;16.30;99.90;;;;;;5075530;28;20410;-24
2022/06/27 00:04:49;;;;;;;13.48;12.07;;;16.30;99.90;;;;;;5075487;28;20433;-24
2022/06/27 00:07:15;;;;;;;14.95;12.18;;;16.30;99.90;;;;;;5073905;28;20053;-24
2022/06/27 00:09:41;;;;;;;14.50;11.02;;;16.40;99.90;;;;;;5074277;28;20396;-24
2022/06/27 00:12:07;;;;;;;14.18;9.93;;;16.40;99.90;;;;;;5057500;28;20051;-24
2022/06/27 00:14:33;;;;;;;14.35;9.77;;;16.50;99.90;;;;;;5075224;28;20075;-24
2022/06/27 00:16:59;;;;;;;11.70;10.50;;;16.50;99.90;;;;;;5073789;28;20555;-24
2022/06/27 00:19:24;;;;;;;10.82;9.07;;;16.50;99.90;;;;;;5075046;28;20181;-24
2022/06/27 00:21:50;;;;;;;12.07;9.38;;;16.50;99.90;;;;;;5074843;28;20048;-24
2022/06/27 00:24:16;;;;;;;10.95;9.02;;;16.50;99.90;;;;;;5075126;28;20081;-24
2022/06/27 00:26:41;;;;;;;14.77;9.15;;;16.60;99.90;;;;;;5075314;28;20103;-24
2022/06/27 00:29:07;;;;;;;13.55;9.63;;;16.60;99.90;;;;;;5074015;28;20433;-24
2022/06/27 00:31:33;;;;;;;13.70;9.13;;;16.60;99.90;;;;;;5074908;28;20052;-24
2022/06/27 00:33:59;;;;;;;11.40;9.25;;;16.50;99.90;;;;;;5073921;28;20045;-24
2022/06/27 00:36:24;;;;;;;12.20;10.60;;;16.50;99.90;;;;;;5074856;28;20101;-24
2022/06/27 00:38:50;;;;;;;11.02;9.45;;;16.50;99.90;;;;;;5074715;28;20044;-24
2022/06/27 00:41:16;;;;;;;11.02;9.10;;;16.50;99.90;;;;;;5073531;28;20501;-24
2022/06/27 00:43:43;;;;;;;14.45;10.15;;;16.50;99.90;;;;;;5074522;28;20059;-24
2022/06/27 00:46:10;;;;;;;13.25;9.43;;;16.50;99.90;;;;;;5074701;28;20044;-24
2022/06/27 00:48:36;;;;;;;12.77;9.98;;;16.50;99.90;;;;;;5075234;28;20049;-24
2022/06/27 00:51:02;;;;;;;10.88;9.73;;;16.50;99.90;;;;;;5074526;28;20137;-24
2022/06/27 00:53:28;;;;;;;12.13;9.68;;;16.50;99.90;;;;;;5074572;28;20051;-24
2022/06/27 00:55:55;;;;;;;14.75;10.57;;;16.50;99.90;;;;;;5074425;28;20044;-24
2022/06/27 00:58:21;;;;;;;13.82;9.90;;;16.40;99.90;;;;;;5073149;28;20395;-24
2022/06/27 01:00:46;;;;;;;11.60;10.38;;;16.40;99.90;;;;;;5074341;28;20050;-24
2022/06/27 01:03:13;;;;;;;13.27;9.48;;;16.40;99.90;;;;;;5075224;28;20052;-24
2022/06/27 01:05:51;;;;;;;13.27;10.63;;;16.40;99.90;;;;;;5074287;28;20044;-24
2022/06/27 01:08:18;;;;;;;10.52;9.35;;;16.30;99.90;;;;;;5074132;28;20068;-24
2022/06/27 01:10:44;;;;;;;12.68;11.38;;;16.30;99.90;;;;;;5073192;28;20037;-24
2022/06/27 01:13:10;;;;;;;13.50;10.40;;;16.30;99.90;;;;;;5074159;28;20103;-24
2022/06/27 01:15:36;;;;;;;17.27;12.85;;;16.30;99.90;;;;;;5056217;28;20044;-24
2022/06/27 01:18:03;;;;;;;13.98;12.52;;;16.20;99.90;;;;;;5073994;28;20044;-24
2022/06/27 01:20:28;;;;;;;16.80;12.55;;;16.20;99.90;;;;;;5056475;28;20478;-24
2022/06/27 01:22:54;;;;;;;14.55;12.98;;;16.10;99.90;;;;;;5074038;28;20074;-24
2022/06/27 01:25:20;;;;;;;18.02;14.80;;;16.00;99.90;;;;;;5073315;28;20052;-24
2022/06/27 01:27:46;;;;;;;18.60;16.38;;;15.80;99.90;;;;;;5073678;28;20400;-24
2022/06/27 01:30:12;;;;;;;22.60;19.90;;;15.70;99.90;;;;;;5074477;28;20044;-24
2022/06/27 01:32:38;;;;;;;28.20;19.63;;;15.50;99.90;;;;;;5074694;28;20055;-24
2022/06/27 01:35:04;;;;;;;22.33;18.77;;;15.40;99.90;;;;;;5072896;28;20048;-24
2022/06/27 01:37:30;;;;;;;25.27;19.17;;;15.30;99.90;;;;;;5073738;28;20047;-24
2022/06/27 01:39:59;;;;;;;27.20;20.58;;;15.30;99.90;;;;;;5072629;28;20048;-24
2022/06/27 01:42:26;;;;;;;26.63;20.58;;;15.20;1.00;;;;;;5073774;28;20045;-24
2022/06/27 01:44:52;;;;;;;29.23;22.50;;;15.20;1.00;;;;;;5073739;28;20048;-24
2022/06/27 01:47:17;;;;;;;27.05;21.42;;;15.20;1.00;;;;;;5073785;28;20532;-24
2022/06/27 01:49:43;;;;;;;39.13;27.23;;;15.10;1.00;;;;;;5073640;28;20071;-24
2022/06/27 01:52:13;;;;;;;28.85;23.20;;;15.20;1.00;;;;;;5073677;28;20052;-24
2022/06/27 01:54:39;;;;;;;32.53;24.17;;;15.20;1.00;;;;;;5073654;28;20051;-24
2022/06/27 01:57:07;;;;;;;30.20;23.73;;;15.20;1.00;;;;;;5073593;28;20386;-24
2022/06/27 01:59:34;;;;;;;33.28;25.90;;;15.20;1.00;;;;;;5072593;28;20131;-24
2022/06/27 02:02:01;;;;;;;34.60;27.60;;;15.20;1.00;;;;;;5072632;28;20048;-24
2022/06/27 02:04:29;;;;;;;37.50;28.33;;;15.20;1.00;;;;;;5056634;28;20108;-24
2022/06/27 02:06:55;;;;;;;38.22;28.35;;;15.20;1.00;;;;;;5073582;28;20499;-24
2022/06/27 02:09:22;;;;;;;35.03;27.92;;;15.30;24.60;;;;;;5073573;28;20268;-24
2022/06/27 02:11:49;;;;;;;29.58;26.38;;;15.30;46.40;;;;;;5073443;28;20051;-24
2022/06/27 02:14:15;;;;;;;38.42;28.95;;;15.30;74.00;;;;;;5072405;28;20390;-24
2022/06/27 02:16:42;;;;;;;34.17;25.60;;;15.30;99.20;;;;;;5072277;28;20067;-24
2022/06/27 02:19:11;;;;;;;31.65;27.48;;;15.30;99.90;;;;;;5073329;28;20444;-24
2022/06/27 02:21:38;;;;;;;38.25;27.70;;;15.40;99.90;;;;;;5072442;28;20052;-24
2022/06/27 02:24:04;;;;;;;43.13;28.80;;;15.40;99.90;;;;;;5073564;28;20440;-24
2022/06/27 02:26:30;;;;;;;27.30;24.40;;;15.40;99.90;;;;;;5072360;28;20052;-24
2022/06/27 02:28:58;;;;;;;36.72;24.33;;;15.40;99.90;;;;;;5073272;28;20052;-24
2022/06/27 02:31:24;;;;;;;30.85;24.13;;;15.40;99.90;;;;;;5073243;28;20075;-24
2022/06/27 02:33:51;;;;;;;31.23;24.15;;;15.40;99.90;;;;;;5072100;28;20047;-24
2022/06/27 02:36:20;;;;;;;29.38;24.60;;;15.40;99.90;;;;;;5073531;28;20044;-24
2022/06/27 02:38:50;;;;;;;33.80;25.05;;;15.50;99.90;;;;;;5073178;28;20052;-24
2022/06/27 02:41:18;;;;;;;29.00;22.35;;;15.50;99.90;;;;;;5075902;28;20048;-24
2022/06/27 02:43:47;;;;;;;29.95;22.92;;;15.60;99.90;;;;;;5076961;28;20044;-24
2022/06/27 02:46:13;;;;;;;29.55;22.88;;;15.60;99.90;;;;;;5076993;28;20048;-24
2022/06/27 02:48:40;;;;;;;28.23;23.92;;;15.70;99.90;;;;;;5075811;28;20037;-24
2022/06/27 02:51:14;;;;;;;28.83;22.77;;;15.70;99.90;;;;;;5075667;28;20069;-24
2022/06/27 02:53:54;;;;;;;27.05;23.30;;;15.70;99.90;;;;;;5076868;28;20482;-24
2022/06/27 02:56:24;;;;;;;26.35;22.10;;;15.80;99.90;;;;;;5077652;28;20048;-24
2022/06/27 02:58:56;;;;;;;24.55;21.65;;;15.80;99.90;;;;;;5076771;28;20052;-24
2022/06/27 03:01:22;;;;;;;24.40;19.90;;;15.80;99.90;;;;;;5076680;28;20048;-24
2022/06/27 03:03:48;;;;;;;27.77;23.23;;;15.80;99.90;;;;;;5075712;28;20053;-24
2022/06/27 03:06:15;;;;;;;22.95;20.45;;;15.90;99.90;;;;;;5076599;28;20371;-24
2022/06/27 03:08:46;;;;;;;28.55;21.55;;;15.90;99.90;;;;;;5077213;28;20393;-24
2022/06/27 03:11:14;;;;;;;25.45;20.17;;;15.90;99.90;;;;;;5077436;28;20425;-24
2022/06/27 03:13:40;;;;;;;24.17;20.20;;;15.90;99.90;;;;;;5076445;28;20110;-25
2022/06/27 03:16:08;;;;;;;24.25;20.67;;;15.90;99.90;;;;;;5076447;28;20440;-24
2022/06/27 03:18:33;;;;;;;25.52;20.95;;;15.90;99.90;;;;;;5076089;28;20664;-24
2022/06/27 03:20:59;;;;;;;25.02;20.83;;;15.90;99.90;;;;;;5076396;28;20075;-24
2022/06/27 03:23:25;;;;;;;29.95;22.63;;;15.90;99.90;;;;;;5076282;28;20474;-24
2022/06/27 03:25:51;;;;;;;29.83;23.73;;;15.90;99.90;;;;;;5076274;28;20049;-24
2022/06/27 03:28:17;;;;;;;26.58;23.73;;;15.90;99.90;;;;;;5076763;28;20052;-24
2022/06/27 03:30:43;;;;;;;31.88;24.88;;;15.90;99.90;;;;;;5076161;28;20040;-24
2022/06/27 03:33:09;;;;;;;27.30;21.95;;;15.90;99.90;;;;;;5076149;28;20057;-24
2022/06/27 03:35:35;;;;;;;25.27;22.02;;;15.90;99.90;;;;;;5076317;28;20075;-24
2022/06/27 03:38:01;;;;;;;28.33;23.20;;;16.00;99.90;;;;;;5074763;28;20044;-24
2022/06/27 03:40:26;;;;;;;28.58;24.05;;;15.90;99.90;;;;;;5075422;28;20044;-24
2022/06/27 03:42:52;;;;;;;27.58;22.50;;;16.00;99.90;;;;;;5076507;28;20521;-25
2022/06/27 03:45:18;;;;;;;24.25;21.40;;;16.00;99.90;;;;;;5025541;28;20044;-24
2022/06/27 03:47:50;;;;;;;25.50;22.63;;;16.00;99.90;;;;;;5074674;28;20064;-24
2022/06/27 03:50:16;;;;;;;25.85;21.73;;;16.00;99.90;;;;;;5075842;28;20044;-24
2022/06/27 03:52:42;;;;;;;24.08;21.35;;;16.00;99.90;;;;;;5074941;28;20051;-24
2022/06/27 03:55:09;;;;;;;26.48;22.17;;;16.00;99.90;;;;;;5074749;28;20052;-24
2022/06/27 03:57:46;;;;;;;31.08;24.63;;;16.00;99.90;;;;;;5075605;28;20045;-24
2022/06/27 04:00:12;;;;;;;27.55;22.40;;;16.00;99.90;;;;;;5076535;28;20067;-24
2022/06/27 04:02:38;;;;;;;26.52;23.42;;;16.00;99.90;;;;;;5074902;28;20152;-24
2022/06/27 04:05:04;;;;;;;25.77;22.35;;;16.00;99.90;;;;;;5075527;28;20092;-24
2022/06/27 04:07:30;;;;;;;23.42;20.92;;;16.00;99.90;;;;;;5075701;28;20510;-24
2022/06/27 04:09:57;;;;;;;25.23;19.92;;;16.00;99.90;;;;;;5075125;28;20457;-24
2022/06/27 04:12:23;;;;;;;26.05;19.55;;;16.10;99.90;;;;;;5075024;28;20509;-24
2022/06/27 04:14:49;;;;;;;24.42;20.92;;;16.10;99.90;;;;;;5075537;28;20049;-24
2022/06/27 04:17:15;;;;;;;25.48;20.27;;;16.10;99.90;;;;;;5075152;28;20483;-24
2022/06/27 04:19:41;;;;;;;23.38;19.17;;;16.10;99.90;;;;;;5074116;28;20052;-24
2022/06/27 04:22:08;;;;;;;22.20;19.60;;;16.20;99.90;;;;;;5075731;28;20082;-24
2022/06/27 04:24:38;;;;;;;23.73;21.05;;;16.20;99.90;;;;;;5074418;28;20040;-24
2022/06/27 04:27:04;;;;;;;22.63;20.08;;;16.20;99.90;;;;;;5074133;28;20083;-24
2022/06/27 04:29:31;;;;;;;21.15;18.90;;;16.30;99.90;;;;;;5075003;28;20045;-24
2022/06/27 04:31:57;;;;;;;23.92;19.63;;;16.30;99.90;;;;;;5074045;28;20077;-24
2022/06/27 04:34:23;;;;;;;24.85;21.17;;;16.40;99.90;;;;;;5074911;28;20482;-24
2022/06/27 04:36:49;;;;;;;24.90;18.77;;;16.50;99.90;;;;;;5075074;28;20093;-24
2022/06/27 04:39:19;;;;;;;23.13;19.10;;;16.60;99.90;;;;;;5074775;28;20041;-24
2022/06/27 04:41:46;;;;;;;21.80;18.55;;;16.60;99.90;;;;;;5074743;28;20118;-24
2022/06/27 04:44:12;;;;;;;20.73;18.63;;;16.70;99.90;;;;;;5074744;28;20248;-24
2022/06/27 04:46:39;;;;;;;21.40;19.13;;;16.80;99.90;;;;;;5074697;28;20490;-24
2022/06/27 04:49:05;;;;;;;22.35;18.80;;;16.80;99.90;;;;;;5074640;28;20079;-24
2022/06/27 04:51:31;;;;;;;22.50;18.63;;;16.80;99.90;;;;;;5073878;28;20131;-24
2022/06/27 04:53:58;;;;;;;26.92;21.02;;;16.90;99.90;;;;;;5074411;28;20462;-24
2022/06/27 04:56:24;;;;;;;24.38;18.13;;;16.90;99.90;;;;;;5074489;28;20056;-24
2022/06/27 04:58:49;;;;;;;27.20;20.63;;;16.90;99.90;;;;;;5074372;28;20037;-24
2022/06/27 05:01:15;;;;;;;23.38;20.73;;;16.90;99.90;;;;;;5074134;28;20048;-24
2022/06/27 05:03:41;;;;;;;23.02;20.58;;;16.90;99.90;;;;;;5073689;28;20046;-24
2022/06/27 05:06:07;;;;;;;23.70;20.45;;;16.90;99.90;;;;;;5074225;28;20056;-24
2022/06/27 05:08:32;;;;;;;26.75;21.52;;;16.90;99.90;;;;;;5074623;28;20136;-24
2022/06/27 05:10:58;;;;;;;29.42;20.50;;;16.90;99.90;;;;;;5073016;28;20051;-24
2022/06/27 05:13:24;;;;;;;23.02;18.77;;;17.00;99.90;;;;;;5072908;28;20045;-24
2022/06/27 05:15:50;;;;;;;23.45;18.55;;;17.00;99.90;;;;;;5073468;28;20049;-24
2022/06/27 05:18:16;;;;;;;21.77;19.48;;;17.10;99.90;;;;;;5039770;28;20101;-24
2022/06/27 05:20:43;;;;;;;21.25;19.05;;;17.10;99.90;;;;;;5074037;28;20052;-24
2022/06/27 05:23:09;;;;;;;18.00;15.85;;;17.20;99.90;;;;;;5074596;28;20090;-24
2022/06/27 05:25:35;;;;;;;17.23;15.32;;;17.20;99.90;;;;;;5072799;28;20060;-24
2022/06/27 05:28:02;;;;;;;18.08;16.00;;;17.20;99.90;;;;;;5073970;28;20052;-24
2022/06/27 05:30:28;;;;;;;18.23;14.55;;;17.30;99.90;;;;;;5073660;28;20514;-24
2022/06/27 05:32:55;;;;;;;17.13;13.77;;;17.40;99.90;;;;;;5057097;28;20051;-24
2022/06/27 05:35:21;;;;;;;16.60;14.73;;;17.40;99.90;;;;;;5073543;28;20052;-24
2022/06/27 05:37:47;;;;;;;19.15;14.10;;;17.50;99.90;;;;;;5072772;28;20063;-24
2022/06/27 05:40:14;;;;;;;13.43;11.93;;;17.60;99.90;;;;;;5073803;28;20053;-24
2022/06/27 05:42:40;;;;;;;12.77;9.80;;;17.70;99.90;;;;;;5072628;28;20052;-24
2022/06/27 05:45:08;;;;;;;10.65;8.88;;;17.70;94.60;;;;;;5073635;28;20134;-24
2022/06/27 05:47:35;;;;;;;10.77;9.63;;;17.80;25.20;;;;;;5056814;28;20127;-24
2022/06/27 05:50:03;;;;;;;12.70;10.00;;;17.90;1.00;;;;;;5073700;28;20163;-24
2022/06/27 05:52:29;;;;;;;9.70;8.13;;;18.00;1.00;;;;;;5074234;28;20394;-24
2022/06/27 05:54:55;;;;;;;12.13;8.70;;;18.10;1.00;;;;;;5073632;28;20045;-24
2022/06/27 05:57:24;;;;;;;9.55;8.07;;;18.10;1.00;;;;;;5039453;28;20044;-24
2022/06/27 05:59:52;;;;;;;9.40;7.38;;;18.20;1.00;;;;;;5072898;28;20078;-24
2022/06/27 06:02:18;;;;;;;10.82;8.73;;;18.20;99.90;;;;;;5073227;28;20516;-24
2022/06/27 06:04:44;;;;;;;11.00;7.40;;;18.30;99.90;;;;;;5039155;28;20047;-24
2022/06/27 06:07:12;;;;;;;8.02;7.22;;;18.50;99.90;;;;;;5073156;28;20139;-24
2022/06/27 06:09:38;;;;;;;11.80;6.68;;;18.60;99.90;;;;;;5073203;28;20505;-25
2022/06/27 06:12:06;;;;;;;8.63;6.05;;;18.60;99.90;;;;;;5074296;28;20056;-24
2022/06/27 06:14:32;;;;;;;7.00;6.30;;;18.70;33.10;;;;;;5073414;28;20052;-25
2022/06/27 06:16:58;;;;;;;7.32;5.65;;;18.70;1.00;;;;;;5076529;28;20497;-24
2022/06/27 06:19:24;;;;;;;7.05;5.70;;;18.60;1.00;;;;;;5059681;28;20048;-24
2022/06/27 06:21:50;;;;;;;6.25;5.63;;;18.60;99.90;;;;;;5078027;28;20548;-25
2022/06/27 06:24:16;;;;;;;6.25;5.13;;;18.50;99.90;;;;;;5077447;28;20051;-25
2022/06/27 06:26:41;;;;;;;5.45;4.93;;;18.40;99.90;;;;;;5078231;28;20390;-24
2022/06/27 06:29:25;;;;;;;5.78;5.22;;;18.40;99.90;;;;;;5076345;28;20503;-24
2022/06/27 06:31:51;;;;;;;8.63;5.15;;;18.30;99.90;;;;;;5078154;28;20041;-24
2022/06/27 06:34:17;;;;;;;7.28;5.22;;;18.40;99.90;;;;;;5076282;28;20390;-24
2022/06/27 06:36:45;;;;;;;6.40;4.80;;;18.30;99.90;;;;;;5077805;28;20048;-24
2022/06/27 06:39:11;;;;;;;6.13;4.72;;;18.30;99.90;;;;;;5077040;28;20123;-25
2022/06/27 06:41:39;;;;;;;5.88;5.28;;;18.30;99.90;;;;;;5077068;28;20501;-25
2022/06/27 06:44:05;;;;;;;4.82;4.25;;;18.30;99.90;;;;;;5077048;28;20049;-24
2022/06/27 06:46:34;;;;;;;5.45;4.80;;;18.20;99.90;;;;;;5076994;28;20044;-24
2022/06/27 06:49:09;;;;;;;5.00;4.07;;;18.20;99.90;;;;;;5076980;28;20389;-24
2022/06/27 06:51:39;;;;;;;4.72;4.07;;;18.20;99.90;;;;;;5077505;28;20045;-24
2022/06/27 06:54:09;;;;;;;5.80;4.70;;;18.00;1.00;;;;;;5076863;28;20084;-25
2022/06/27 06:56:36;;;;;;;5.35;4.85;;;17.80;1.00;;;;;;5077342;28;20083;-24
2022/06/27 06:59:03;;;;;;;5.72;4.82;;;17.80;72.70;;;;;;5058984;28;20060;-24
2022/06/27 07:01:33;;;;;;;6.80;5.18;;;17.80;99.90;;;;;;5076742;28;20049;-24
2022/06/27 07:03:59;;;;;;;6.40;5.22;;;17.80;96.90;;;;;;5076671;28;20117;-24
2022/06/27 07:06:25;;;;;;;6.30;5.20;;;17.70;99.90;;;;;;5076973;28;20037;-25
2022/06/27 07:08:53;;;;;;;6.60;5.95;;;17.80;99.90;;;;;;5075408;28;20490;-23
2022/06/27 07:11:21;;;;;;;7.05;5.93;;;17.80;99.90;;;;;;5076514;28;20065;-24
2022/06/27 07:13:48;;;;;;;6.75;5.78;;;17.90;99.90;;;;;;5076969;28;20045;-24
2022/06/27 07:16:15;;;;;;;6.20;5.57;;;18.00;99.90;;;;;;5076491;28;20049;-24
2022/06/27 07:18:44;;;;;;;4.97;4.47;;;18.00;99.90;;;;;;5076337;28;20048;-24
2022/06/27 07:21:11;;;;;;;5.93;5.40;;;18.00;99.90;;;;;;5060076;28;20053;-24
2022/06/27 07:23:37;;;;;;;7.50;5.45;;;18.00;99.90;;;;;;5075633;28;20056;-24
2022/06/27 07:26:03;;;;;;;7.00;5.43;;;18.00;99.90;;;;;;5074538;28;20040;-24
2022/06/27 07:28:29;;;;;;;3.95;3.55;;;18.10;99.90;;;;;;5076209;28;20504;-24
2022/06/27 07:30:55;;;;;;;7.13;5.60;;;18.20;99.90;;;;;;5076985;28;20124;-24
2022/06/27 07:33:21;;;;;;;6.43;5.38;;;18.30;99.90;;;;;;5076156;28;20047;-24
2022/06/27 07:35:48;;;;;;;7.03;5.00;;;18.30;99.90;;;;;;5076110;28;20051;-24
2022/06/27 07:38:13;;;;;;;7.50;5.47;;;18.30;99.90;;;;;;5076046;28;20037;-24
2022/06/27 07:40:41;;;;;;;4.20;3.72;;;18.20;91.70;;;;;;5076834;28;20071;-24
2022/06/27 07:43:09;;;;;;;5.80;4.97;;;18.20;45.80;;;;;;5075935;28;20486;-24
2022/06/27 07:45:38;;;;;;;7.35;4.57;;;18.00;36.80;;;;;;5075889;28;20052;-24
2022/06/27 07:48:05;;;;;;;10.00;5.80;;;18.00;5.00;;;;;;5075880;28;20124;-23
2022/06/27 07:50:40;;;;;;;5.10;4.30;;;17.90;1.00;;;;;;5075785;28;20048;-24
2022/06/27 07:53:11;;;;;;;5.22;4.35;;;17.90;48.20;;;;;;5077228;28;20135;-23
2022/06/27 07:55:39;;;;;;;5.55;3.85;;;17.80;52.50;;;;;;5076322;28;20045;-23
2022/06/27 07:58:07;;;;;;;3.85;3.45;;;17.60;31.10;;;;;;5074475;28;20428;-23
2022/06/27 08:00:33;;;;;;;7.03;4.13;;;17.60;51.50;;;;;;5075636;28;20084;-23
2022/06/27 08:03:36;;;;;;;4.63;3.47;;;17.70;84.50;;;;;;5075463;28;20132;-23
2022/06/27 08:05:46;;;;;;;5.75;3.30;;;17.60;89.70;;;;;;5076060;28;20052;-24
2022/06/27 08:08:12;;;;;;;4.93;3.70;;;17.70;97.00;;;;;;5075747;28;20044;-24
2022/06/27 08:10:37;;;;;;;5.28;3.65;;;17.80;94.00;;;;;;5075412;28;20049;-24
2022/06/27 08:13:03;;;;;;;4.93;4.03;;;18.00;99.90;;;;;;5076230;28;20137;-24
2022/06/27 08:15:29;;;;;;;3.85;3.00;;;18.30;37.50;;;;;;5075318;28;20084;-24
2022/06/27 08:17:57;;;;;;;4.72;3.22;;;18.50;1.00;;;;;;5074025;28;20075;-24
2022/06/27 08:20:23;;;;;;;4.50;3.47;;;18.70;1.00;;;;;;5075268;28;20044;-24
2022/06/27 08:22:51;;;;;;;4.25;3.13;;;19.00;1.00;;;;;;5075225;28;20386;-24
2022/06/27 08:25:17;;;;;;;4.95;3.42;;;19.20;1.00;;;;;;5058060;28;20084;-24
2022/06/27 08:27:48;;;;;;;4.75;2.72;;;19.30;99.90;;;;;;5075364;28;20115;-24
2022/06/27 08:30:15;;;;;;;4.47;2.90;;;19.40;99.90;;;;;;5074697;28;20530;-24
2022/06/27 08:32:44;;;;;;;4.07;2.50;;;19.40;99.90;;;;;;5074995;28;20053;-24
2022/06/27 08:35:11;;;;;;;3.55;2.50;;;19.50;99.90;;;;;;5075236;28;20425;-24
2022/06/27 08:37:36;;;;;;;5.32;1.83;;;19.70;99.90;;;;;;5073902;28;20083;-25
2022/06/27 08:40:04;;;;;;;2.67;2.00;;;19.80;1.00;;;;;;5074822;28;20052;-24
2022/06/27 08:42:30;;;;;;;5.38;2.90;;;19.80;1.00;;;;;;5074920;28;20547;-24
2022/06/27 08:44:57;;;;;;;5.30;2.72;;;19.90;1.00;;;;;;5073572;28;20131;-24
2022/06/27 08:47:23;;;;;;;4.50;2.65;;;19.90;1.00;;;;;;5074093;28;20041;-24
2022/06/27 08:49:52;;;;;;;4.85;2.92;;;19.90;1.00;;;;;;5074050;28;20052;-24
2022/06/27 08:52:19;;;;;;;2.80;2.60;;;19.70;1.00;;;;;;5058229;28;20048;-24
2022/06/27 08:54:47;;;;;;;3.70;3.38;;;19.70;1.00;;;;;;5073862;28;20048;-24
2022/06/27 08:57:13;;;;;;;3.08;2.80;;;19.70;1.00;;;;;;5074465;28;20040;-24
2022/06/27 08:59:39;;;;;;;3.65;3.13;;;19.70;1.00;;;;;;5074803;28;20047;-24
2022/06/27 09:02:07;;;;;;;4.05;2.67;;;19.70;1.00;;;;;;5074277;28;20044;-24
2022/06/27 09:04:57;;;;;;;2.38;2.03;;;19.90;1.00;;;;;;5074383;28;20135;-24
2022/06/27 09:07:23;;;;;;;3.88;1.80;;;20.00;1.00;;;;;;5074415;28;20474;-24
2022/06/27 09:09:49;;;;;;;3.50;2.10;;;20.00;99.90;;;;;;5073290;28;20060;-24
2022/06/27 09:12:15;;;;;;;3.25;2.45;;;20.10;99.90;;;;;;5074497;28;20055;-24
2022/06/27 09:14:43;;;;;;;4.93;2.45;;;20.30;99.90;;;;;;5072927;28;20113;-24
2022/06/27 09:17:15;;;;;;;5.00;2.35;;;20.70;99.90;;;;;;5074044;28;20102;-24
2022/06/27 09:19:45;;;;;;;2.63;2.10;;;21.20;99.90;;;;;;5074142;28;20410;-24
2022/06/27 09:22:15;;;;;;;5.00;2.25;;;21.60;99.90;;;;;;5073802;28;20405;-24
2022/06/27 09:25:09;;;;;;;3.15;1.90;;;21.90;87.40;;;;;;5073786;28;20463;-24
2022/06/27 09:27:45;;;;;;;3.60;2.47;;;22.10;1.00;;;;;;5071771;28;20134;-25
2022/06/27 09:30:20;;;;;;;3.78;2.10;;;22.20;99.90;;;;;;5074019;28;20127;-24
2022/06/27 09:32:48;;;;;;;5.50;2.00;;;21.80;99.90;;;;;;5073907;28;20113;-24
2022/06/27 09:35:35;;;;;;;3.85;2.60;;;21.40;1.00;;;;;;5072715;28;20055;-24
2022/06/27 09:38:07;;;;;;;2.78;2.40;;;21.10;1.00;;;;;;5073808;28;20051;-24
2022/06/27 09:40:36;;;;;;;5.75;2.03;;;20.80;1.00;;;;;;5073606;28;20405;-24
2022/06/27 09:43:04;;;;;;;1.90;1.40;;;20.60;1.00;;;;;;5073872;28;20049;-24
2022/06/27 09:45:30;;;;;;;3.08;1.90;;;20.60;1.00;;;;;;5056621;28;20051;-24
2022/06/27 09:48:04;;;;;;;2.42;1.98;;;20.50;1.00;;;;;;5073798;28;20044;-24
2022/06/27 09:50:33;;;;;;;3.15;1.80;;;20.60;1.00;;;;;;5074104;28;20441;-24
2022/06/27 09:53:00;;;;;;;3.83;2.30;;;20.70;1.00;;;;;;5073730;28;20186;-24
2022/06/27 09:55:31;;;;;;;1.80;1.70;;;20.80;1.00;;;;;;5056859;28;20467;-24
2022/06/27 09:58:00;;;;;;;2.53;1.70;;;20.90;1.00;;;;;;5074447;28;20123;-24
2022/06/27 10:00:27;;;;;;;2.85;2.10;;;20.70;1.00;;;;;;5073594;28;20070;-25
2022/06/27 10:02:53;;;;;;;2.88;2.17;;;20.80;5.00;;;;;;5022938;28;20135;-24
2022/06/27 10:05:20;;;;;;;1.90;1.70;;;20.80;11.90;;;;;;5073592;28;20044;-24
2022/06/27 10:08:12;;;;;;;2.45;2.22;;;20.80;1.00;;;;;;5055278;28;20109;-24
2022/06/27 10:11:09;;;;;;;3.93;2.47;;;20.70;1.00;;;;;;5072563;28;20049;-24
2022/06/27 10:13:42;;;;;;;2.55;1.42;;;20.50;1.00;;;;;;5073923;28;20616;-24
2022/06/27 10:16:12;;;;;;;3.25;1.90;;;20.30;1.00;;;;;;5073469;28;20059;-24
2022/06/27 10:19:05;;;;;;;2.85;2.63;;;20.20;43.50;;;;;;5073926;28;20084;-24
2022/06/27 10:21:41;;;;;;;4.22;2.13;;;20.20;6.00;;;;;;5072772;28;20392;-24
2022/06/27 10:24:18;;;;;;;2.95;2.17;;;20.20;35.00;;;;;;5073971;28;20087;-24
2022/06/27 10:26:45;;;;;;;3.55;2.20;;;20.30;22.80;;;;;;5073380;28;20044;-24
2022/06/27 10:29:29;;;;;;;2.10;1.90;;;20.30;1.00;;;;;;5073308;28;20098;-24
2022/06/27 10:31:59;;;;;;;2.85;1.95;;;20.50;1.00;;;;;;5073356;28;20090;-24
2022/06/27 10:34:40;;;;;;;3.03;2.08;;;20.50;1.00;;;;;;5073289;28;20049;-24
2022/06/27 10:37:24;;;;;;;4.00;1.77;;;20.50;1.00;;;;;;5073250;28;20131;-25
2022/06/27 10:40:14;;;;;;;2.38;1.98;;;20.60;1.00;;;;;;5073234;28;20057;-25
2022/06/27 10:43:06;;;;;;;3.50;2.10;;;20.70;1.00;;;;;;5073849;28;20084;-25
2022/06/27 10:45:32;;;;;;;2.40;1.63;;;20.90;1.00;;;;;;5070923;28;20153;-25
2022/06/27 10:48:01;;;;;;;3.85;2.60;;;21.00;1.00;;;;;;5073183;28;20090;-25
2022/06/27 10:50:38;;;;;;;5.30;2.30;;;21.10;1.00;;;;;;5073170;28;20049;-25
2022/06/27 10:53:19;;;;;;;3.35;2.53;;;21.20;1.00;;;;;;5073193;28;20083;-25
2022/06/27 10:55:45;;;;;;;3.45;2.38;;;21.20;1.00;;;;;;5073151;28;20051;-25
2022/06/27 10:58:28;;;;;;;3.63;2.00;;;21.00;1.00;;;;;;5073040;28;20040;-25
2022/06/27 11:01:13;;;;;;;3.95;2.30;;;20.80;1.00;;;;;;5040299;28;20067;-24
2022/06/27 11:03:39;;;;;;;2.53;2.33;;;20.60;1.00;;;;;;5077336;28;20040;-25
2022/06/27 11:06:06;;;;;;;5.80;2.92;;;20.50;1.00;;;;;;5076700;28;20048;-25
2022/06/27 11:08:34;;;;;;;5.68;3.05;;;20.50;1.00;;;;;;5077819;28;20064;-25
2022/06/27 11:11:01;;;;;;;5.05;3.00;;;20.60;34.80;;;;;;5077110;28;20048;-25
2022/06/27 11:13:52;;;;;;;4.30;3.30;;;20.60;1.00;;;;;;5075566;28;20063;-25
2022/06/27 11:16:24;;;;;;;5.10;3.38;;;20.60;1.00;;;;;;5070802;28;20054;-25
2022/06/27 11:18:59;;;;;;;4.20;3.45;;;20.80;1.00;;;;;;5076423;28;20051;-25
2022/06/27 11:21:32;;;;;;;7.50;4.45;;;21.00;1.00;;;;;;5076407;28;20132;-25
2022/06/27 11:24:08;;;;;;;4.05;3.60;;;21.00;1.00;;;;;;5076996;28;20053;-25
2022/06/27 11:26:46;;;;;;;5.30;4.13;;;21.00;1.00;;;;;;5076911;28;20062;-25
2022/06/27 11:32:05;;;;;;;6.53;4.15;;;21.20;1.00;;;;;;5076540;28;20056;-25
2022/06/27 11:34:37;;;;;;;4.40;4.00;;;21.30;1.00;;;;;;5076144;28;20044;-25
2022/06/27 11:37:09;;;;;;;5.45;3.97;;;21.40;1.00;;;;;;5076160;28;20052;-25
2022/06/27 11:39:35;;;;;;;4.53;3.27;;;21.40;1.00;;;;;;5076985;28;20048;-25
2022/06/27 11:42:05;;;;;;;3.95;2.75;;;21.30;1.00;;;;;;5075385;28;20052;-25
2022/06/27 11:44:31;;;;;;;5.65;4.05;;;21.30;1.00;;;;;;5076081;28;20048;-25
2022/06/27 11:47:08;;;;;;;7.50;4.20;;;21.30;1.00;;;;;;5074641;28;20051;-25
2022/06/27 11:49:38;;;;;;;4.18;3.58;;;21.40;1.00;;;;;;5075870;28;20037;-25
2022/06/27 11:52:09;;;;;;;6.00;3.88;;;21.70;1.00;;;;;;5076680;28;20386;-25
2022/06/27 11:54:44;;;;;;;5.80;4.10;;;21.90;1.00;;;;;;5076363;28;20087;-25
2022/06/27 11:57:21;;;;;;;3.80;3.13;;;22.10;1.00;;;;;;5075663;28;20127;-25
2022/06/27 11:59:49;;;;;;;4.03;3.63;;;22.20;99.90;;;;;;5074579;28;20048;-25
2022/06/27 12:02:29;;;;;;;4.75;4.25;;;22.40;99.90;;;;;;5075506;28;20044;-25
2022/06/27 12:05:14;;;;;;;5.40;4.05;;;22.50;99.90;;;;;;5076093;28;20045;-25
2022/06/27 12:07:53;;;;;;;5.05;4.55;;;22.80;99.90;;;;;;5075907;28;20059;-25
2022/06/27 12:13:31;;;;;;;5.68;4.60;;;23.10;99.90;;;;;;5075234;28;20049;-25
2022/06/27 12:16:02;;;;;;;6.15;4.22;;;22.80;99.90;;;;;;5075347;28;20559;-25
2022/06/27 12:18:41;;;;;;;5.22;4.35;;;22.80;99.90;;;;;;5075027;28;20475;-25
2022/06/27 12:21:07;;;;;;;7.07;4.28;;;22.60;99.90;;;;;;5075288;28;20081;-25
2022/06/27 12:23:33;;;;;;;7.07;4.50;;;22.50;99.90;;;;;;5074067;28;20179;-25
2022/06/27 12:25:59;;;;;;;5.25;4.20;;;22.50;99.90;;;;;;5075253;28;20487;-25
2022/06/27 12:28:25;;;;;;;5.72;4.90;;;22.60;99.90;;;;;;5074742;28;20052;-25
2022/06/27 12:30:51;;;;;;;6.32;4.75;;;22.70;99.90;;;;;;5074120;28;20048;-25
2022/06/27 12:33:17;;;;;;;5.97;4.75;;;22.50;99.90;;;;;;5075601;28;20052;-25
2022/06/27 12:35:42;;;;;;;6.15;5.10;;;22.40;99.90;;;;;;5073799;28;20113;-25
2022/06/27 12:38:08;;;;;;;6.00;4.80;;;22.40;99.90;;;;;;5075446;28;20536;-25
2022/06/27 12:40:35;;;;;;;4.47;4.07;;;22.50;99.90;;;;;;5074174;28;20071;-25
2022/06/27 12:43:04;;;;;;;4.50;4.10;;;22.70;99.90;;;;;;5073624;28;20044;-25
2022/06/27 12:45:32;;;;;;;9.10;4.65;;;22.80;99.90;;;;;;5074723;28;20052;-25
2022/06/27 12:47:58;;;;;;;6.30;5.18;;;23.10;99.90;;;;;;5074807;28;20127;-25
2022/06/27 12:50:24;;;;;;;5.47;4.93;;;23.30;99.90;;;;;;5073520;28;20051;-25
2022/06/27 12:52:50;;;;;;;5.18;4.68;;;23.50;57.70;;;;;;5075435;28;20040;-25
2022/06/27 12:55:21;;;;;;;6.85;5.70;;;23.40;10.60;;;;;;5075380;28;20051;-25